sensor_id;sensor_type;location;lat;lon;timestamp;P1;durP1;ratioP1;P2;durP2;ratioP2
13463;SDS011;6804;48.774;9.174;2023-03-24T00:02:11;2.77;;;2.20;;
13463;SDS011;6804;48.774;9.174;2023-03-24T00:04:40;3.07;;;2.30;;
13463;SDS011;6804;48.774;9.174;2023-03-24T00:07:08;4.60;;;2.30;;
13463;SDS011;6804;48.774;9.174;2023-03-24T00:09:38;3.43;;;2.43;;
13463;SDS011;6804;48.774;9.174;2023-03-24T00:12:07;3.17;;;2.03;;
13463;SDS011;6804;48.774;9.174;2023-03-24T00:14:35;2.70;;;2.17;;
13463;SDS011;6804;48.774;9.174;2023-03-24T00:17:07;2.70;;;2.10;;
13463;SDS011;6804;48.774;9.174;2023-03-24T00:19:36;2.80;;;2.23;;
13463;SDS011;6804;48.774;9.174;2023-03-24T00:22:04;2.17;;;1.97;;
13463;SDS011;6804;48.774;9.174;2023-03-24T00:24:32;2.67;;;1.93;;
13463;SDS011;6804;48.774;9.174;2023-03-24T00:27:02;3.37;;;2.00;;
13463;SDS011;6804;48.774;9.174;2023-03-24T00:29:32;2.73;;;1.77;;
13463;SDS011;6804;48.774;9.174;2023-03-24T00:32:02;2.43;;;1.90;;
13463;SDS011;6804;48.774;9.174;2023-03-24T00:34:33;3.20;;;2.20;;
13463;SDS011;6804;48.774;9.174;2023-03-24T00:37:02;2.43;;;2.00;;
13463;SDS011;6804;48.774;9.174;2023-03-24T00:39:31;1.80;;;1.70;;
13463;SDS011;6804;48.774;9.174;2023-03-24T00:42:00;2.90;;;2.00;;
13463;SDS011;6804;48.774;9.174;2023-03-24T00:44:28;2.03;;;1.80;;
13463;SDS011;6804;48.774;9.174;2023-03-24T00:46:56;2.80;;;2.20;;
13463;SDS011;6804;48.774;9.174;2023-03-24T00:49:24;3.10;;;1.90;;
13463;SDS011;6804;48.774;9.174;2023-03-24T00:52:09;3.90;;;2.00;;
13463;SDS011;6804;48.774;9.174;2023-03-24T00:54:40;1.90;;;1.70;;
13463;SDS011;6804;48.774;9.174;2023-03-24T00:57:07;3.20;;;1.47;;
13463;SDS011;6804;48.774;9.174;2023-03-24T00:59:37;2.20;;;1.83;;
13463;SDS011;6804;48.774;9.174;2023-03-24T01:02:16;2.83;;;1.87;;
13463;SDS011;6804;48.774;9.174;2023-03-24T01:04:46;2.33;;;1.83;;
13463;SDS011;6804;48.774;9.174;2023-03-24T01:07:13;1.97;;;1.80;;
13463;SDS011;6804;48.774;9.174;2023-03-24T01:09:46;1.80;;;1.70;;
13463;SDS011;6804;48.774;9.174;2023-03-24T01:12:21;2.33;;;1.67;;
13463;SDS011;6804;48.774;9.174;2023-03-24T01:14:49;1.70;;;1.60;;
13463;SDS011;6804;48.774;9.174;2023-03-24T01:17:21;3.43;;;1.97;;
13463;SDS011;6804;48.774;9.174;2023-03-24T01:19:49;2.37;;;1.83;;
13463;SDS011;6804;48.774;9.174;2023-03-24T01:22:16;2.37;;;1.83;;
13463;SDS011;6804;48.774;9.174;2023-03-24T01:24:44;2.13;;;1.70;;
13463;SDS011;6804;48.774;9.174;2023-03-24T01:27:15;1.97;;;1.47;;
13463;SDS011;6804;48.774;9.174;2023-03-24T01:29:42;2.63;;;2.00;;
13463;SDS011;6804;48.774;9.174;2023-03-24T01:32:10;2.47;;;1.70;;
13463;SDS011;6804;48.774;9.174;2023-03-24T01:34:49;1.80;;;1.60;;
13463;SDS011;6804;48.774;9.174;2023-03-24T01:37:16;2.00;;;1.70;;
13463;SDS011;6804;48.774;9.174;2023-03-24T01:39:44;3.07;;;2.00;;
13463;SDS011;6804;48.774;9.174;2023-03-24T01:42:15;2.50;;;2.00;;
13463;SDS011;6804;48.774;9.174;2023-03-24T01:44:45;3.37;;;1.70;;
13463;SDS011;6804;48.774;9.174;2023-03-24T01:47:13;3.23;;;1.70;;
13463;SDS011;6804;48.774;9.174;2023-03-24T01:49:43;3.53;;;2.03;;
13463;SDS011;6804;48.774;9.174;2023-03-24T01:52:19;2.43;;;1.60;;
13463;SDS011;6804;48.774;9.174;2023-03-24T01:54:52;2.70;;;1.80;;
13463;SDS011;6804;48.774;9.174;2023-03-24T01:57:30;1.90;;;1.53;;
13463;SDS011;6804;48.774;9.174;2023-03-24T02:00:01;2.63;;;1.97;;
13463;SDS011;6804;48.774;9.174;2023-03-24T02:02:32;2.63;;;1.70;;
13463;SDS011;6804;48.774;9.174;2023-03-24T02:05:02;2.27;;;1.60;;
13463;SDS011;6804;48.774;9.174;2023-03-24T02:07:40;2.73;;;1.60;;
13463;SDS011;6804;48.774;9.174;2023-03-24T02:10:18;2.23;;;1.83;;
13463;SDS011;6804;48.774;9.174;2023-03-24T02:12:50;3.00;;;1.70;;
13463;SDS011;6804;48.774;9.174;2023-03-24T02:15:19;2.20;;;1.83;;
13463;SDS011;6804;48.774;9.174;2023-03-24T02:17:53;2.43;;;1.83;;
13463;SDS011;6804;48.774;9.174;2023-03-24T02:26:52;3.93;;;1.90;;
13463;SDS011;6804;48.774;9.174;2023-03-24T02:29:38;1.60;;;1.47;;
13463;SDS011;6804;48.774;9.174;2023-03-24T02:41:58;1.73;;;1.40;;
13463;SDS011;6804;48.774;9.174;2023-03-24T02:44:39;1.43;;;1.33;;
13463;SDS011;6804;48.774;9.174;2023-03-24T02:47:15;4.40;;;1.53;;
13463;SDS011;6804;48.774;9.174;2023-03-24T02:49:46;2.23;;;1.70;;
13463;SDS011;6804;48.774;9.174;2023-03-24T02:52:22;1.60;;;1.40;;
13463;SDS011;6804;48.774;9.174;2023-03-24T02:55:03;1.70;;;1.40;;
13463;SDS011;6804;48.774;9.174;2023-03-24T02:57:41;2.73;;;1.80;;
13463;SDS011;6804;48.774;9.174;2023-03-24T03:00:25;2.80;;;1.63;;
13463;SDS011;6804;48.774;9.174;2023-03-24T03:02:57;1.60;;;1.50;;
13463;SDS011;6804;48.774;9.174;2023-03-24T03:05:30;1.77;;;1.60;;
13463;SDS011;6804;48.774;9.174;2023-03-24T03:08:03;3.50;;;1.40;;
13463;SDS011;6804;48.774;9.174;2023-03-24T03:10:35;1.83;;;1.60;;
13463;SDS011;6804;48.774;9.174;2023-03-24T03:13:08;1.63;;;1.40;;
13463;SDS011;6804;48.774;9.174;2023-03-24T03:15:42;1.77;;;1.53;;
13463;SDS011;6804;48.774;9.174;2023-03-24T03:18:13;1.80;;;1.47;;
13463;SDS011;6804;48.774;9.174;2023-03-24T03:20:47;1.40;;;1.30;;
13463;SDS011;6804;48.774;9.174;2023-03-24T03:23:19;2.43;;;1.30;;
13463;SDS011;6804;48.774;9.174;2023-03-24T03:25:54;2.40;;;1.73;;
13463;SDS011;6804;48.774;9.174;2023-03-24T03:28:30;2.00;;;1.40;;
13463;SDS011;6804;48.774;9.174;2023-03-24T03:31:01;1.60;;;1.50;;
13463;SDS011;6804;48.774;9.174;2023-03-24T03:33:33;2.27;;;1.53;;
13463;SDS011;6804;48.774;9.174;2023-03-24T03:36:08;2.83;;;1.63;;
13463;SDS011;6804;48.774;9.174;2023-03-24T03:38:42;2.00;;;1.40;;
13463;SDS011;6804;48.774;9.174;2023-03-24T03:41:20;1.53;;;1.37;;
13463;SDS011;6804;48.774;9.174;2023-03-24T03:43:48;3.20;;;1.43;;
13463;SDS011;6804;48.774;9.174;2023-03-24T03:46:15;2.47;;;1.60;;
13463;SDS011;6804;48.774;9.174;2023-03-24T03:48:44;1.60;;;1.30;;
13463;SDS011;6804;48.774;9.174;2023-03-24T03:51:11;2.30;;;1.33;;
13463;SDS011;6804;48.774;9.174;2023-03-24T03:53:42;2.63;;;1.60;;
13463;SDS011;6804;48.774;9.174;2023-03-24T03:56:13;2.33;;;1.70;;
13463;SDS011;6804;48.774;9.174;2023-03-24T03:58:45;2.33;;;1.50;;
13463;SDS011;6804;48.774;9.174;2023-03-24T04:01:14;1.57;;;1.47;;
13463;SDS011;6804;48.774;9.174;2023-03-24T04:06:35;1.47;;;1.37;;
13463;SDS011;6804;48.774;9.174;2023-03-24T04:09:09;2.17;;;1.40;;
13463;SDS011;6804;48.774;9.174;2023-03-24T04:11:54;2.60;;;1.60;;
13463;SDS011;6804;48.774;9.174;2023-03-24T04:17:36;2.37;;;1.47;;
13463;SDS011;6804;48.774;9.174;2023-03-24T04:20:18;3.90;;;1.33;;
13463;SDS011;6804;48.774;9.174;2023-03-24T04:22:59;2.97;;;1.50;;
13463;SDS011;6804;48.774;9.174;2023-03-24T04:25:33;2.20;;;1.37;;
13463;SDS011;6804;48.774;9.174;2023-03-24T04:28:16;1.70;;;1.30;;
13463;SDS011;6804;48.774;9.174;2023-03-24T04:30:56;1.83;;;1.63;;
13463;SDS011;6804;48.774;9.174;2023-03-24T04:33:36;1.63;;;1.37;;
13463;SDS011;6804;48.774;9.174;2023-03-24T04:36:11;3.03;;;1.40;;
13463;SDS011;6804;48.774;9.174;2023-03-24T04:38:47;2.13;;;1.33;;
13463;SDS011;6804;48.774;9.174;2023-03-24T04:41:19;1.70;;;1.60;;
13463;SDS011;6804;48.774;9.174;2023-03-24T04:43:49;2.33;;;1.60;;
13463;SDS011;6804;48.774;9.174;2023-03-24T04:46:20;2.90;;;1.50;;
13463;SDS011;6804;48.774;9.174;2023-03-24T04:48:49;2.10;;;1.47;;
13463;SDS011;6804;48.774;9.174;2023-03-24T04:51:18;1.33;;;1.20;;
13463;SDS011;6804;48.774;9.174;2023-03-24T04:53:46;1.90;;;1.70;;
13463;SDS011;6804;48.774;9.174;2023-03-24T04:56:27;3.13;;;1.67;;
13463;SDS011;6804;48.774;9.174;2023-03-24T04:59:05;1.47;;;1.23;;
13463;SDS011;6804;48.774;9.174;2023-03-24T05:01:34;2.47;;;1.60;;
13463;SDS011;6804;48.774;9.174;2023-03-24T05:04:05;2.53;;;1.50;;
13463;SDS011;6804;48.774;9.174;2023-03-24T05:06:33;2.13;;;1.70;;
13463;SDS011;6804;48.774;9.174;2023-03-24T05:09:00;1.50;;;1.30;;
13463;SDS011;6804;48.774;9.174;2023-03-24T05:11:31;2.10;;;1.30;;
13463;SDS011;6804;48.774;9.174;2023-03-24T05:13:58;1.40;;;1.30;;
13463;SDS011;6804;48.774;9.174;2023-03-24T05:16:25;1.50;;;1.37;;
13463;SDS011;6804;48.774;9.174;2023-03-24T05:18:54;1.40;;;1.30;;
13463;SDS011;6804;48.774;9.174;2023-03-24T05:21:21;1.37;;;1.20;;
13463;SDS011;6804;48.774;9.174;2023-03-24T05:23:49;2.17;;;1.40;;
13463;SDS011;6804;48.774;9.174;2023-03-24T05:26:16;1.70;;;1.50;;
13463;SDS011;6804;48.774;9.174;2023-03-24T05:28:43;1.83;;;1.40;;
13463;SDS011;6804;48.774;9.174;2023-03-24T05:31:10;1.40;;;1.30;;
13463;SDS011;6804;48.774;9.174;2023-03-24T05:33:38;1.47;;;1.37;;
13463;SDS011;6804;48.774;9.174;2023-03-24T05:36:07;2.20;;;1.53;;
13463;SDS011;6804;48.774;9.174;2023-03-24T05:38:35;1.60;;;1.50;;
13463;SDS011;6804;48.774;9.174;2023-03-24T05:41:02;2.53;;;1.37;;
13463;SDS011;6804;48.774;9.174;2023-03-24T05:43:31;1.83;;;1.57;;
13463;SDS011;6804;48.774;9.174;2023-03-24T05:45:59;2.00;;;1.73;;
13463;SDS011;6804;48.774;9.174;2023-03-24T05:48:26;2.07;;;1.70;;
13463;SDS011;6804;48.774;9.174;2023-03-24T05:50:53;2.47;;;1.50;;
13463;SDS011;6804;48.774;9.174;2023-03-24T05:53:22;1.77;;;1.47;;
13463;SDS011;6804;48.774;9.174;2023-03-24T05:55:49;1.40;;;1.30;;
13463;SDS011;6804;48.774;9.174;2023-03-24T05:58:23;1.90;;;1.70;;
13463;SDS011;6804;48.774;9.174;2023-03-24T06:00:50;3.33;;;1.77;;
13463;SDS011;6804;48.774;9.174;2023-03-24T06:03:18;2.77;;;1.60;;
13463;SDS011;6804;48.774;9.174;2023-03-24T06:05:46;2.60;;;1.90;;
13463;SDS011;6804;48.774;9.174;2023-03-24T06:08:15;2.10;;;1.53;;
13463;SDS011;6804;48.774;9.174;2023-03-24T06:10:46;2.40;;;1.60;;
13463;SDS011;6804;48.774;9.174;2023-03-24T06:13:16;2.80;;;1.77;;
13463;SDS011;6804;48.774;9.174;2023-03-24T06:15:44;2.17;;;1.80;;
13463;SDS011;6804;48.774;9.174;2023-03-24T06:18:13;2.50;;;1.63;;
13463;SDS011;6804;48.774;9.174;2023-03-24T06:20:42;2.07;;;1.70;;
13463;SDS011;6804;48.774;9.174;2023-03-24T06:23:17;1.97;;;1.77;;
13463;SDS011;6804;48.774;9.174;2023-03-24T06:25:45;1.70;;;1.60;;
13463;SDS011;6804;48.774;9.174;2023-03-24T06:28:15;1.97;;;1.60;;
13463;SDS011;6804;48.774;9.174;2023-03-24T06:30:42;2.60;;;1.73;;
13463;SDS011;6804;48.774;9.174;2023-03-24T06:33:10;2.17;;;1.90;;
13463;SDS011;6804;48.774;9.174;2023-03-24T06:35:38;2.00;;;1.80;;
13463;SDS011;6804;48.774;9.174;2023-03-24T06:38:05;2.30;;;2.00;;
13463;SDS011;6804;48.774;9.174;2023-03-24T06:40:35;1.90;;;1.70;;
13463;SDS011;6804;48.774;9.174;2023-03-24T06:43:07;4.50;;;2.07;;
13463;SDS011;6804;48.774;9.174;2023-03-24T06:45:38;5.83;;;2.17;;
13463;SDS011;6804;48.774;9.174;2023-03-24T06:48:05;2.27;;;2.00;;
13463;SDS011;6804;48.774;9.174;2023-03-24T06:50:34;2.77;;;1.90;;
13463;SDS011;6804;48.774;9.174;2023-03-24T06:53:04;2.70;;;2.00;;
13463;SDS011;6804;48.774;9.174;2023-03-24T06:55:32;2.33;;;2.10;;
13463;SDS011;6804;48.774;9.174;2023-03-24T06:57:59;2.17;;;1.90;;
13463;SDS011;6804;48.774;9.174;2023-03-24T07:00:29;2.23;;;2.03;;
13463;SDS011;6804;48.774;9.174;2023-03-24T07:02:56;2.40;;;2.20;;
13463;SDS011;6804;48.774;9.174;2023-03-24T07:05:29;3.00;;;2.20;;
13463;SDS011;6804;48.774;9.174;2023-03-24T07:07:56;2.30;;;2.00;;
13463;SDS011;6804;48.774;9.174;2023-03-24T07:10:23;4.37;;;2.10;;
13463;SDS011;6804;48.774;9.174;2023-03-24T07:12:51;3.07;;;2.23;;
13463;SDS011;6804;48.774;9.174;2023-03-24T07:15:21;2.47;;;2.27;;
13463;SDS011;6804;48.774;9.174;2023-03-24T07:17:51;4.60;;;2.57;;
13463;SDS011;6804;48.774;9.174;2023-03-24T07:20:28;3.60;;;2.50;;
13463;SDS011;6804;48.774;9.174;2023-03-24T07:22:56;3.57;;;2.10;;
13463;SDS011;6804;48.774;9.174;2023-03-24T07:25:23;3.47;;;2.10;;
13463;SDS011;6804;48.774;9.174;2023-03-24T07:27:53;3.50;;;2.37;;
13463;SDS011;6804;48.774;9.174;2023-03-24T07:30:24;2.33;;;2.13;;
13463;SDS011;6804;48.774;9.174;2023-03-24T07:32:56;4.77;;;2.50;;
13463;SDS011;6804;48.774;9.174;2023-03-24T07:35:26;3.27;;;2.53;;
13463;SDS011;6804;48.774;9.174;2023-03-24T07:37:56;3.10;;;2.20;;
13463;SDS011;6804;48.774;9.174;2023-03-24T07:40:27;4.30;;;1.93;;
13463;SDS011;6804;48.774;9.174;2023-03-24T07:42:55;4.13;;;2.50;;
13463;SDS011;6804;48.774;9.174;2023-03-24T07:45:29;2.43;;;2.23;;
13463;SDS011;6804;48.774;9.174;2023-03-24T07:47:59;2.80;;;2.10;;
13463;SDS011;6804;48.774;9.174;2023-03-24T07:50:28;2.50;;;2.30;;
13463;SDS011;6804;48.774;9.174;2023-03-24T07:52:58;3.30;;;2.33;;
13463;SDS011;6804;48.774;9.174;2023-03-24T07:55:28;2.60;;;2.37;;
13463;SDS011;6804;48.774;9.174;2023-03-24T07:57:56;3.77;;;1.80;;
13463;SDS011;6804;48.774;9.174;2023-03-24T08:00:27;4.63;;;2.60;;
13463;SDS011;6804;48.774;9.174;2023-03-24T08:02:59;4.23;;;2.20;;
13463;SDS011;6804;48.774;9.174;2023-03-24T08:05:30;3.53;;;1.97;;
13463;SDS011;6804;48.774;9.174;2023-03-24T08:08:00;3.50;;;2.13;;
13463;SDS011;6804;48.774;9.174;2023-03-24T08:10:30;2.93;;;2.20;;
13463;SDS011;6804;48.774;9.174;2023-03-24T08:12:58;3.00;;;2.40;;
13463;SDS011;6804;48.774;9.174;2023-03-24T08:15:26;4.30;;;2.50;;
13463;SDS011;6804;48.774;9.174;2023-03-24T08:17:57;2.97;;;1.93;;
13463;SDS011;6804;48.774;9.174;2023-03-24T08:20:29;3.30;;;2.20;;
13463;SDS011;6804;48.774;9.174;2023-03-24T08:22:58;3.37;;;2.10;;
13463;SDS011;6804;48.774;9.174;2023-03-24T08:25:31;4.03;;;2.27;;
13463;SDS011;6804;48.774;9.174;2023-03-24T08:28:02;3.20;;;2.20;;
13463;SDS011;6804;48.774;9.174;2023-03-24T08:30:30;3.10;;;2.30;;
13463;SDS011;6804;48.774;9.174;2023-03-24T08:32:58;4.47;;;2.57;;
13463;SDS011;6804;48.774;9.174;2023-03-24T08:35:30;3.20;;;2.30;;
13463;SDS011;6804;48.774;9.174;2023-03-24T08:37:59;2.60;;;2.20;;
13463;SDS011;6804;48.774;9.174;2023-03-24T08:40:30;4.37;;;2.30;;
13463;SDS011;6804;48.774;9.174;2023-03-24T08:43:00;3.57;;;2.47;;
13463;SDS011;6804;48.774;9.174;2023-03-24T08:45:29;3.13;;;2.23;;
13463;SDS011;6804;48.774;9.174;2023-03-24T08:48:01;3.90;;;2.53;;
13463;SDS011;6804;48.774;9.174;2023-03-24T08:50:33;2.60;;;2.40;;
13463;SDS011;6804;48.774;9.174;2023-03-24T08:53:03;2.33;;;2.13;;
13463;SDS011;6804;48.774;9.174;2023-03-24T08:55:30;2.53;;;2.17;;
13463;SDS011;6804;48.774;9.174;2023-03-24T08:57:58;2.70;;;2.00;;
13463;SDS011;6804;48.774;9.174;2023-03-24T09:00:28;2.83;;;2.10;;
13463;SDS011;6804;48.774;9.174;2023-03-24T09:02:59;2.57;;;2.00;;
13463;SDS011;6804;48.774;9.174;2023-03-24T09:05:27;2.47;;;2.00;;
13463;SDS011;6804;48.774;9.174;2023-03-24T09:07:56;3.40;;;2.10;;
13463;SDS011;6804;48.774;9.174;2023-03-24T09:10:25;3.20;;;1.80;;
13463;SDS011;6804;48.774;9.174;2023-03-24T09:12:55;2.00;;;1.80;;
13463;SDS011;6804;48.774;9.174;2023-03-24T09:15:26;1.90;;;1.80;;
13463;SDS011;6804;48.774;9.174;2023-03-24T09:17:54;2.27;;;2.07;;
13463;SDS011;6804;48.774;9.174;2023-03-24T09:20:23;2.53;;;1.83;;
13463;SDS011;6804;48.774;9.174;2023-03-24T09:22:51;3.17;;;2.13;;
13463;SDS011;6804;48.774;9.174;2023-03-24T09:25:23;2.30;;;1.80;;
13463;SDS011;6804;48.774;9.174;2023-03-24T09:27:51;3.10;;;1.77;;
13463;SDS011;6804;48.774;9.174;2023-03-24T09:30:18;3.13;;;1.73;;
13463;SDS011;6804;48.774;9.174;2023-03-24T09:32:46;3.17;;;1.93;;
13463;SDS011;6804;48.774;9.174;2023-03-24T09:35:14;3.00;;;1.73;;
13463;SDS011;6804;48.774;9.174;2023-03-24T09:37:42;1.80;;;1.47;;
13463;SDS011;6804;48.774;9.174;2023-03-24T09:40:14;2.97;;;1.80;;
13463;SDS011;6804;48.774;9.174;2023-03-24T09:42:53;3.40;;;1.80;;
13463;SDS011;6804;48.774;9.174;2023-03-24T09:45:29;2.10;;;1.70;;
13463;SDS011;6804;48.774;9.174;2023-03-24T09:48:02;2.50;;;1.57;;
13463;SDS011;6804;48.774;9.174;2023-03-24T09:50:34;2.47;;;1.50;;
13463;SDS011;6804;48.774;9.174;2023-03-24T09:53:06;1.90;;;1.70;;
13463;SDS011;6804;48.774;9.174;2023-03-24T09:55:49;2.50;;;1.90;;
13463;SDS011;6804;48.774;9.174;2023-03-24T09:58:21;2.07;;;1.87;;
13463;SDS011;6804;48.774;9.174;2023-03-24T10:00:53;2.17;;;1.97;;
13463;SDS011;6804;48.774;9.174;2023-03-24T10:03:21;2.47;;;1.80;;
13463;SDS011;6804;48.774;9.174;2023-03-24T10:05:50;2.13;;;1.73;;
13463;SDS011;6804;48.774;9.174;2023-03-24T10:08:23;2.10;;;1.90;;
13463;SDS011;6804;48.774;9.174;2023-03-24T10:10:58;1.70;;;1.60;;
13463;SDS011;6804;48.774;9.174;2023-03-24T10:13:38;2.63;;;1.70;;
13463;SDS011;6804;48.774;9.174;2023-03-24T10:16:12;2.40;;;1.70;;
13463;SDS011;6804;48.774;9.174;2023-03-24T10:18:46;2.20;;;1.67;;
13463;SDS011;6804;48.774;9.174;2023-03-24T10:21:24;2.00;;;1.70;;
13463;SDS011;6804;48.774;9.174;2023-03-24T10:23:54;2.50;;;1.57;;
13463;SDS011;6804;48.774;9.174;2023-03-24T10:26:36;1.53;;;1.40;;
13463;SDS011;6804;48.774;9.174;2023-03-24T10:29:20;2.40;;;1.40;;
13463;SDS011;6804;48.774;9.174;2023-03-24T10:31:51;1.50;;;1.40;;
13463;SDS011;6804;48.774;9.174;2023-03-24T10:34:26;2.83;;;1.40;;
13463;SDS011;6804;48.774;9.174;2023-03-24T10:36:55;2.93;;;1.60;;
13463;SDS011;6804;48.774;9.174;2023-03-24T10:39:24;2.00;;;1.20;;
13463;SDS011;6804;48.774;9.174;2023-03-24T10:41:57;2.57;;;1.00;;
13463;SDS011;6804;48.774;9.174;2023-03-24T10:44:26;1.30;;;1.20;;
13463;SDS011;6804;48.774;9.174;2023-03-24T10:46:56;1.97;;;1.60;;
13463;SDS011;6804;48.774;9.174;2023-03-24T10:49:32;1.50;;;1.30;;
13463;SDS011;6804;48.774;9.174;2023-03-24T10:52:01;2.07;;;1.20;;
13463;SDS011;6804;48.774;9.174;2023-03-24T10:54:34;1.30;;;1.20;;
13463;SDS011;6804;48.774;9.174;2023-03-24T10:57:12;2.03;;;1.50;;
13463;SDS011;6804;48.774;9.174;2023-03-24T10:59:47;2.50;;;1.90;;
13463;SDS011;6804;48.774;9.174;2023-03-24T11:02:21;1.83;;;1.20;;
13463;SDS011;6804;48.774;9.174;2023-03-24T11:04:53;1.83;;;1.30;;
13463;SDS011;6804;48.774;9.174;2023-03-24T11:07:27;2.17;;;1.30;;
13463;SDS011;6804;48.774;9.174;2023-03-24T11:09:59;1.57;;;1.23;;
13463;SDS011;6804;48.774;9.174;2023-03-24T11:12:39;1.80;;;1.17;;
13463;SDS011;6804;48.774;9.174;2023-03-24T11:15:14;1.23;;;1.00;;
13463;SDS011;6804;48.774;9.174;2023-03-24T11:17:44;1.47;;;0.97;;
13463;SDS011;6804;48.774;9.174;2023-03-24T11:20:16;2.07;;;1.07;;
13463;SDS011;6804;48.774;9.174;2023-03-24T11:22:55;1.20;;;1.07;;
13463;SDS011;6804;48.774;9.174;2023-03-24T11:25:32;1.13;;;1.00;;
13463;SDS011;6804;48.774;9.174;2023-03-24T11:28:07;1.43;;;1.23;;
13463;SDS011;6804;48.774;9.174;2023-03-24T11:30:44;1.70;;;1.17;;
13463;SDS011;6804;48.774;9.174;2023-03-24T11:33:18;1.17;;;1.07;;
13463;SDS011;6804;48.774;9.174;2023-03-24T11:35:49;1.40;;;0.90;;
13463;SDS011;6804;48.774;9.174;2023-03-24T11:38:18;1.33;;;1.10;;
13463;SDS011;6804;48.774;9.174;2023-03-24T11:40:56;1.23;;;1.03;;
13463;SDS011;6804;48.774;9.174;2023-03-24T11:43:27;1.80;;;1.27;;
13463;SDS011;6804;48.774;9.174;2023-03-24T11:45:58;0.83;;;0.83;;
13463;SDS011;6804;48.774;9.174;2023-03-24T11:48:32;1.27;;;0.90;;
13463;SDS011;6804;48.774;9.174;2023-03-24T11:51:05;1.70;;;0.93;;
13463;SDS011;6804;48.774;9.174;2023-03-24T11:53:37;0.93;;;0.90;;
13463;SDS011;6804;48.774;9.174;2023-03-24T11:56:15;1.50;;;1.10;;
13463;SDS011;6804;48.774;9.174;2023-03-24T11:58:54;1.23;;;1.00;;
13463;SDS011;6804;48.774;9.174;2023-03-24T12:01:31;1.03;;;0.90;;
13463;SDS011;6804;48.774;9.174;2023-03-24T12:07:03;2.27;;;1.10;;
13463;SDS011;6804;48.774;9.174;2023-03-24T12:09:50;1.23;;;0.80;;
13463;SDS011;6804;48.774;9.174;2023-03-24T12:12:27;1.10;;;0.60;;
13463;SDS011;6804;48.774;9.174;2023-03-24T12:17:56;1.60;;;0.90;;
13463;SDS011;6804;48.774;9.174;2023-03-24T12:20:49;0.57;;;0.57;;
13463;SDS011;6804;48.774;9.174;2023-03-24T12:23:28;1.40;;;0.90;;
13463;SDS011;6804;48.774;9.174;2023-03-24T12:26:18;1.93;;;1.30;;
13463;SDS011;6804;48.774;9.174;2023-03-24T12:28:57;2.73;;;1.67;;
13463;SDS011;6804;48.774;9.174;2023-03-24T12:31:43;1.83;;;1.27;;
13463;SDS011;6804;48.774;9.174;2023-03-24T12:34:39;1.00;;;0.70;;
13463;SDS011;6804;48.774;9.174;2023-03-24T12:37:38;2.00;;;1.00;;
13463;SDS011;6804;48.774;9.174;2023-03-24T12:43:26;1.03;;;0.80;;
13463;SDS011;6804;48.774;9.174;2023-03-24T12:46:01;0.70;;;0.67;;
13463;SDS011;6804;48.774;9.174;2023-03-24T12:48:45;1.27;;;0.80;;
13463;SDS011;6804;48.774;9.174;2023-03-24T12:51:28;0.90;;;0.70;;
13463;SDS011;6804;48.774;9.174;2023-03-24T12:54:11;1.03;;;0.77;;
13463;SDS011;6804;48.774;9.174;2023-03-24T12:56:55;1.17;;;0.73;;
13463;SDS011;6804;48.774;9.174;2023-03-24T12:59:30;1.60;;;0.67;;
13463;SDS011;6804;48.774;9.174;2023-03-24T13:02:07;1.17;;;0.83;;
13463;SDS011;6804;48.774;9.174;2023-03-24T13:04:49;1.30;;;1.00;;
13463;SDS011;6804;48.774;9.174;2023-03-24T13:07:23;3.37;;;1.90;;
13463;SDS011;6804;48.774;9.174;2023-03-24T13:09:59;1.10;;;1.00;;
13463;SDS011;6804;48.774;9.174;2023-03-24T13:12:37;4.17;;;3.07;;
13463;SDS011;6804;48.774;9.174;2023-03-24T13:15:16;2.30;;;1.60;;
13463;SDS011;6804;48.774;9.174;2023-03-24T13:17:47;3.40;;;1.77;;
13463;SDS011;6804;48.774;9.174;2023-03-24T13:20:24;0.97;;;0.80;;
13463;SDS011;6804;48.774;9.174;2023-03-24T13:23:00;1.37;;;0.90;;
13463;SDS011;6804;48.774;9.174;2023-03-24T13:25:36;0.73;;;0.73;;
13463;SDS011;6804;48.774;9.174;2023-03-24T13:28:18;0.73;;;0.70;;
13463;SDS011;6804;48.774;9.174;2023-03-24T13:30:50;1.20;;;0.90;;
13463;SDS011;6804;48.774;9.174;2023-03-24T13:33:33;1.17;;;0.80;;
13463;SDS011;6804;48.774;9.174;2023-03-24T13:36:10;0.90;;;0.90;;
13463;SDS011;6804;48.774;9.174;2023-03-24T13:38:54;2.10;;;0.90;;
13463;SDS011;6804;48.774;9.174;2023-03-24T13:41:31;1.00;;;0.90;;
13463;SDS011;6804;48.774;9.174;2023-03-24T13:44:06;0.90;;;0.80;;
13463;SDS011;6804;48.774;9.174;2023-03-24T13:46:38;0.77;;;0.73;;
13463;SDS011;6804;48.774;9.174;2023-03-24T13:49:11;0.80;;;0.80;;
13463;SDS011;6804;48.774;9.174;2023-03-24T13:51:44;2.40;;;1.23;;
13463;SDS011;6804;48.774;9.174;2023-03-24T13:54:14;2.40;;;1.10;;
13463;SDS011;6804;48.774;9.174;2023-03-24T13:56:51;0.67;;;0.67;;
13463;SDS011;6804;48.774;9.174;2023-03-24T13:59:23;1.53;;;0.97;;
13463;SDS011;6804;48.774;9.174;2023-03-24T14:05:04;1.00;;;0.70;;
13463;SDS011;6804;48.774;9.174;2023-03-24T14:07:44;2.40;;;1.17;;
13463;SDS011;6804;48.774;9.174;2023-03-24T14:10:28;1.53;;;0.80;;
13463;SDS011;6804;48.774;9.174;2023-03-24T14:13:22;1.03;;;0.77;;
13463;SDS011;6804;48.774;9.174;2023-03-24T14:19:23;1.17;;;0.80;;
13463;SDS011;6804;48.774;9.174;2023-03-24T14:21:58;3.67;;;1.30;;
13463;SDS011;6804;48.774;9.174;2023-03-24T14:24:38;1.57;;;1.00;;
13463;SDS011;6804;48.774;9.174;2023-03-24T14:27:22;3.07;;;1.57;;
13463;SDS011;6804;48.774;9.174;2023-03-24T14:30:18;3.90;;;1.80;;
13463;SDS011;6804;48.774;9.174;2023-03-24T14:32:55;2.10;;;1.00;;
13463;SDS011;6804;48.774;9.174;2023-03-24T14:35:28;1.27;;;1.00;;
13463;SDS011;6804;48.774;9.174;2023-03-24T14:38:02;1.83;;;1.10;;
13463;SDS011;6804;48.774;9.174;2023-03-24T14:40:36;2.33;;;1.00;;
13463;SDS011;6804;48.774;9.174;2023-03-24T14:43:17;2.10;;;1.10;;
13463;SDS011;6804;48.774;9.174;2023-03-24T14:46:01;3.73;;;1.43;;
13463;SDS011;6804;48.774;9.174;2023-03-24T14:48:48;2.07;;;0.90;;
13463;SDS011;6804;48.774;9.174;2023-03-24T14:51:34;1.30;;;0.90;;
13463;SDS011;6804;48.774;9.174;2023-03-24T14:54:11;3.40;;;1.00;;
13463;SDS011;6804;48.774;9.174;2023-03-24T14:56:48;1.77;;;1.07;;
13463;SDS011;6804;48.774;9.174;2023-03-24T14:59:32;1.90;;;0.80;;
13463;SDS011;6804;48.774;9.174;2023-03-24T15:02:14;1.70;;;0.90;;
13463;SDS011;6804;48.774;9.174;2023-03-24T15:08:02;1.13;;;0.87;;
13463;SDS011;6804;48.774;9.174;2023-03-24T15:10:38;1.17;;;0.87;;
13463;SDS011;6804;48.774;9.174;2023-03-24T15:13:32;1.97;;;0.93;;
13463;SDS011;6804;48.774;9.174;2023-03-24T15:16:05;1.47;;;1.10;;
13463;SDS011;6804;48.774;9.174;2023-03-24T15:18:45;2.20;;;1.10;;
13463;SDS011;6804;48.774;9.174;2023-03-24T15:21:22;1.33;;;0.90;;
13463;SDS011;6804;48.774;9.174;2023-03-24T15:23:54;1.13;;;0.90;;
13463;SDS011;6804;48.774;9.174;2023-03-24T15:26:26;1.53;;;1.17;;
13463;SDS011;6804;48.774;9.174;2023-03-24T15:28:59;1.90;;;0.93;;
13463;SDS011;6804;48.774;9.174;2023-03-24T15:31:33;1.27;;;1.00;;
13463;SDS011;6804;48.774;9.174;2023-03-24T15:34:04;2.73;;;1.27;;
13463;SDS011;6804;48.774;9.174;2023-03-24T15:36:37;1.00;;;0.80;;
13463;SDS011;6804;48.774;9.174;2023-03-24T15:39:17;2.13;;;1.13;;
13463;SDS011;6804;48.774;9.174;2023-03-24T15:41:51;2.10;;;1.10;;
13463;SDS011;6804;48.774;9.174;2023-03-24T15:44:23;2.87;;;1.00;;
13463;SDS011;6804;48.774;9.174;2023-03-24T15:46:53;2.10;;;0.90;;
13463;SDS011;6804;48.774;9.174;2023-03-24T15:49:23;2.67;;;1.00;;
13463;SDS011;6804;48.774;9.174;2023-03-24T15:51:55;1.47;;;0.90;;
13463;SDS011;6804;48.774;9.174;2023-03-24T15:54:24;1.00;;;0.80;;
13463;SDS011;6804;48.774;9.174;2023-03-24T15:56:58;1.83;;;0.70;;
13463;SDS011;6804;48.774;9.174;2023-03-24T15:59:45;0.90;;;0.60;;
13463;SDS011;6804;48.774;9.174;2023-03-24T16:04:59;1.43;;;0.93;;
13463;SDS011;6804;48.774;9.174;2023-03-24T16:07:31;2.10;;;1.30;;
13463;SDS011;6804;48.774;9.174;2023-03-24T16:10:03;1.83;;;1.00;;
13463;SDS011;6804;48.774;9.174;2023-03-24T16:12:33;1.17;;;1.00;;
13463;SDS011;6804;48.774;9.174;2023-03-24T16:15:03;2.00;;;0.80;;
13463;SDS011;6804;48.774;9.174;2023-03-24T16:17:32;1.40;;;0.90;;
13463;SDS011;6804;48.774;9.174;2023-03-24T16:20:00;1.80;;;1.10;;